createdAt,value
2023-05-02T00:00:47.291Z,100706.88
2023-05-02T00:03:14.393Z,100710.31
2023-05-02T00:05:41.220Z,100707.78
2023-05-02T00:08:08.241Z,100705.19
2023-05-02T00:10:34.668Z,100712.06
2023-05-02T00:13:01.247Z,100701.78
2023-05-02T00:15:28.066Z,100696.66
2023-05-02T00:17:55.108Z,100696.66
2023-05-02T00:20:21.862Z,100695.78
2023-05-02T00:22:48.575Z,100699.22
2023-05-02T00:25:15.010Z,100701.78
2023-05-02T00:27:42.237Z,100700.06
2023-05-02T00:30:09.168Z,100703.50
2023-05-02T00:32:35.968Z,100702.63
2023-05-02T00:35:02.587Z,100703.47
2023-05-02T00:37:29.166Z,100708.59
2023-05-02T00:39:55.683Z,100697.44
2023-05-02T00:42:22.222Z,100692.31
2023-05-02T00:44:48.862Z,100695.72
2023-05-02T00:47:16.169Z,100694.03
2023-05-02T00:49:44.974Z,100691.44
2023-05-02T00:52:11.701Z,100687.16
2023-05-02T00:54:38.925Z,100694.84
2023-05-02T00:57:05.664Z,100694.84
2023-05-02T00:59:33.738Z,100693.97
2023-05-02T01:02:09.422Z,100688.84
2023-05-02T01:05:15.161Z,100688.84
2023-05-02T01:07:54.668Z,100682.84
2023-05-02T01:10:33.603Z,100687.16
2023-05-02T01:13:08.342Z,100688.03
2023-05-02T01:15:39.307Z,100692.38
2023-05-02T01:18:08.983Z,100690.69
2023-05-02T01:20:39.196Z,100680.41
2023-05-02T01:23:14.779Z,100692.38
2023-05-02T01:25:53.604Z,100688.09
2023-05-02T01:28:53.217Z,100686.38
2023-05-02T01:31:20.388Z,100686.41
2023-05-02T01:33:49.111Z,100686.34
2023-05-02T01:36:17.281Z,100690.59
2023-05-02T01:38:45.893Z,100689.75
2023-05-02T01:41:13.913Z,100700.00
2023-05-02T01:43:41.885Z,100694.00
2023-05-02T01:46:10.676Z,100698.31
2023-05-02T01:48:37.688Z,100694.03
2023-05-02T01:51:05.892Z,100717.13
2023-05-02T01:53:35.121Z,100711.13
2023-05-02T01:56:01.930Z,100708.53
2023-05-02T01:58:32.473Z,100707.66
2023-05-02T02:01:00.868Z,100705.09
2023-05-02T02:03:33.217Z,100699.13
2023-05-02T02:06:02.528Z,100715.31
2023-05-02T02:08:29.321Z,100708.50
2023-05-02T02:11:00.162Z,100705.13
2023-05-02T02:13:31.369Z,100704.25
2023-05-02T02:16:01.554Z,100708.50
2023-05-02T02:18:30.062Z,100711.09
2023-05-02T02:20:59.646Z,100713.66
2023-05-02T02:23:29.090Z,100715.31
2023-05-02T02:25:57.576Z,100717.09
2023-05-02T02:28:24.246Z,100721.34
2023-05-02T02:30:51.655Z,100723.88
2023-05-02T02:33:22.360Z,100727.31
2023-05-02T02:36:07.675Z,100729.88
2023-05-02T02:38:54.240Z,100735.00
2023-05-02T02:42:09.818Z,100744.41
2023-05-02T02:44:42.009Z,100749.56
2023-05-02T02:47:20.630Z,100753.81
2023-05-02T02:49:59.925Z,100767.53
2023-05-02T02:52:48.005Z,100761.59
2023-05-02T02:55:26.452Z,100763.25
2023-05-02T02:58:02.053Z,100763.28
2023-05-02T03:00:29.557Z,100765.88
2023-05-02T03:02:56.905Z,100785.53
2023-05-02T03:05:24.616Z,100781.28
2023-05-02T03:07:51.866Z,100784.69
2023-05-02T03:10:18.357Z,100790.66
2023-05-02T03:12:45.965Z,100803.53
2023-05-02T03:15:24.853Z,100806.94
2023-05-02T03:17:51.322Z,100800.94
2023-05-02T03:20:17.771Z,100803.47
2023-05-02T03:22:44.102Z,100806.06
2023-05-02T03:25:10.443Z,100813.72
2023-05-02T03:27:36.775Z,100811.19
2023-05-02T03:30:03.282Z,100820.56
2023-05-02T03:32:29.668Z,100821.41
2023-05-02T03:34:56.040Z,100822.28
2023-05-02T03:37:22.413Z,100831.69
2023-05-02T03:39:48.787Z,100835.09
2023-05-02T03:42:15.260Z,100835.09
2023-05-02T03:44:41.608Z,100843.63
2023-05-02T03:47:08.146Z,100846.16
2023-05-02T03:49:35.011Z,100854.66
2023-05-02T03:52:01.400Z,100865.75
2023-05-02T03:54:27.897Z,100858.88
2023-05-02T03:56:54.983Z,100864.88
2023-05-02T03:59:21.378Z,100863.16
2023-05-02T04:01:50.922Z,100864.88
2023-05-02T04:04:17.350Z,100876.78
2023-05-02T04:06:43.809Z,100881.06
2023-05-02T04:09:10.244Z,100887.84
2023-05-02T04:11:36.606Z,100889.63
2023-05-02T04:14:02.948Z,100888.78
2023-05-02T04:16:29.327Z,100895.59
2023-05-02T04:18:55.754Z,100898.19
2023-05-02T04:21:22.100Z,100895.59
2023-05-02T04:23:48.467Z,100897.25
2023-05-02T04:26:14.905Z,100895.63
2023-05-02T04:28:41.271Z,100901.53
2023-05-02T04:31:07.834Z,100905.00
2023-05-02T04:33:34.833Z,100905.84
2023-05-02T04:36:01.204Z,100918.69
2023-05-02T04:38:27.588Z,100919.53
2023-05-02T04:40:54.011Z,100928.94
2023-05-02T04:45:46.892Z,100932.38
2023-05-02T04:48:13.298Z,100935.78
2023-05-02T04:50:39.702Z,100942.63
2023-05-02T04:53:06.043Z,100944.34
2023-05-02T04:55:32.405Z,100942.72
2023-05-02T04:57:58.757Z,100947.00
2023-05-02T05:00:25.168Z,100948.69
2023-05-02T05:02:51.811Z,100959.81
2023-05-02T05:05:18.303Z,100967.53
2023-05-02T05:07:44.733Z,100968.38
2023-05-02T05:10:11.264Z,100964.97
2023-05-02T05:12:37.698Z,100971.81
2023-05-02T05:15:04.334Z,100972.72
2023-05-02T05:17:30.729Z,100971.91
2023-05-02T05:19:57.161Z,100977.06
2023-05-02T05:22:23.708Z,100986.50
2023-05-02T05:24:54.041Z,100990.78
2023-05-02T05:27:20.834Z,101001.06
2023-05-02T05:29:47.693Z,100993.34
2023-05-02T05:32:14.347Z,100999.31
2023-05-02T05:34:40.926Z,101007.88
2023-05-02T05:37:07.299Z,101007.00
2023-05-02T05:39:33.677Z,101011.34
2023-05-02T05:42:00.035Z,101008.75
2023-05-02T05:44:26.357Z,101013.03
2023-05-02T05:46:52.833Z,101024.19
2023-05-02T05:49:19.236Z,101025.00
2023-05-02T05:51:45.707Z,101023.34
2023-05-02T05:54:12.038Z,101033.63
2023-05-02T05:56:38.395Z,101034.50
2023-05-02T05:59:04.743Z,101045.66
2023-05-02T06:01:31.109Z,101042.25
2023-05-02T06:03:57.553Z,101049.06
2023-05-02T06:06:24.047Z,101051.69
2023-05-02T06:08:50.466Z,101049.97
2023-05-02T06:11:16.778Z,101058.56
2023-05-02T06:13:43.170Z,101066.25
2023-05-02T06:16:09.562Z,101068.81
2023-05-02T06:18:36.026Z,101082.53
2023-05-02T06:21:06.237Z,101077.41
2023-05-02T06:23:33.161Z,101083.41
2023-05-02T06:26:00.379Z,101090.25
2023-05-02T06:28:26.855Z,101095.38
2023-05-02T06:31:04.634Z,101096.22
2023-05-02T06:33:32.591Z,101094.53
2023-05-02T06:36:01.400Z,101099.66
2023-05-02T06:38:28.813Z,101112.53
2023-05-02T06:40:55.150Z,101116.78
2023-05-02T06:43:21.544Z,101121.09
2023-05-02T06:45:47.894Z,101122.78
2023-05-02T06:48:14.348Z,101119.38
2023-05-02T06:50:40.866Z,101128.78
2023-05-02T06:53:07.269Z,101133.06
2023-05-02T06:55:33.641Z,101137.38
2023-05-02T06:58:00.245Z,101143.34
2023-05-02T07:00:26.644Z,101146.75
2023-05-02T07:02:53.124Z,101152.75
2023-05-02T07:05:19.519Z,101154.50
2023-05-02T07:07:45.895Z,101155.34
2023-05-02T07:10:12.344Z,101157.03
2023-05-02T07:12:39.388Z,101167.31
2023-05-02T07:15:06.391Z,101167.28
2023-05-02T07:17:32.782Z,101180.16
2023-05-02T07:19:59.307Z,101181.88
2023-05-02T07:22:25.704Z,101188.75
2023-05-02T07:25:02.637Z,101190.47
2023-05-02T07:27:29.469Z,101202.47
2023-05-02T07:29:55.857Z,101196.41
2023-05-02T07:32:22.423Z,101198.19
2023-05-02T07:34:48.968Z,101193.03
2023-05-02T07:37:15.298Z,101196.41
2023-05-02T07:39:41.637Z,101192.97
2023-05-02T07:42:07.967Z,101196.38
2023-05-02T07:44:34.346Z,101204.06
2023-05-02T07:47:00.729Z,101203.97
2023-05-02T07:49:27.050Z,101203.09
2023-05-02T07:51:53.426Z,101207.41
2023-05-02T07:54:21.670Z,101209.97
2023-05-02T07:56:48.533Z,101215.03
2023-05-02T07:59:15.225Z,101222.03
2023-05-02T08:01:41.742Z,101217.59
2023-05-02T08:04:08.819Z,101223.63
2023-05-02T08:06:35.452Z,101226.25
2023-05-02T08:09:01.848Z,101233.97
2023-05-02T08:11:28.337Z,101234.84
2023-05-02T08:13:55.402Z,101232.31
2023-05-02T08:16:22.049Z,101238.28
2023-05-02T08:18:50.989Z,101245.22
2023-05-02T08:21:17.405Z,101238.38
2023-05-02T08:23:43.783Z,101253.81
2023-05-02T08:26:10.354Z,101242.59
2023-05-02T08:28:36.728Z,101245.16
2023-05-02T08:31:03.105Z,101249.44
2023-05-02T08:33:29.427Z,101252.72
2023-05-02T08:35:55.819Z,101257.06
2023-05-02T08:38:22.160Z,101259.66
2023-05-02T08:40:48.604Z,101256.94
2023-05-02T08:43:16.789Z,101263.91
2023-05-02T08:45:44.999Z,101264.69
2023-05-02T08:48:13.125Z,101262.97
2023-05-02T08:50:41.012Z,101273.34
2023-05-02T08:53:08.858Z,101269.09
2023-05-02T08:55:38.042Z,101277.69
2023-05-02T08:58:04.650Z,101281.13
2023-05-02T09:00:32.445Z,101287.16
2023-05-02T09:03:30.112Z,101289.69
2023-05-02T09:06:09.840Z,101302.63
2023-05-02T09:08:37.478Z,101303.56
2023-05-02T09:11:05.487Z,101310.44
2023-05-02T09:13:40.030Z,101306.91
2023-05-02T09:16:11.763Z,101317.97
2023-05-02T09:18:42.920Z,101317.97
2023-05-02T09:21:19.698Z,101321.47
2023-05-02T09:23:49.528Z,101321.41
2023-05-02T09:26:21.457Z,101340.38
2023-05-02T09:28:53.052Z,101343.81
2023-05-02T09:31:43.344Z,101337.03
2023-05-02T09:34:11.682Z,101337.91
2023-05-02T09:36:49.359Z,101352.53
2023-05-02T09:39:18.692Z,101348.16
2023-05-02T09:41:47.178Z,101341.97
2023-05-02T09:44:19.127Z,101340.19
2023-05-02T09:46:56.637Z,101342.00
2023-05-02T09:49:46.498Z,101353.38
2023-05-02T09:52:18.440Z,101349.94
2023-05-02T09:54:45.444Z,101352.47
2023-05-02T09:57:12.169Z,101358.44
2023-05-02T09:59:42.499Z,101358.38
2023-05-02T10:02:09.429Z,101355.75
2023-05-02T10:04:36.952Z,101362.63
2023-05-02T10:07:03.647Z,101360.91
2023-05-02T10:09:30.918Z,101358.31
2023-05-02T10:11:57.659Z,101366.16
2023-05-02T10:14:26.786Z,101357.50
2023-05-02T10:17:02.888Z,101363.47
2023-05-02T10:19:50.959Z,101370.25
2023-05-02T10:22:22.235Z,101373.69
2023-05-02T10:24:50.758Z,101377.19
2023-05-02T10:27:17.386Z,101380.56
2023-05-02T10:29:46.579Z,101377.25
2023-05-02T10:32:14.896Z,101378.91
2023-05-02T10:34:42.016Z,101379.75
2023-05-02T10:37:08.572Z,101385.72
2023-05-02T10:39:35.533Z,101390.94
2023-05-02T10:42:04.603Z,101392.78
2023-05-02T10:44:39.840Z,101403.97
2023-05-02T10:47:19.639Z,101403.97
2023-05-02T10:49:57.986Z,101414.28
2023-05-02T10:52:35.398Z,101416.91
2023-05-02T10:55:22.265Z,101417.84
2023-05-02T10:58:21.168Z,101421.25
2023-05-02T11:00:48.166Z,101422.13
2023-05-02T11:03:14.894Z,101436.75
2023-05-02T11:06:04.982Z,101442.75
2023-05-02T11:08:31.524Z,101445.31
2023-05-02T11:11:18.042Z,101453.94
2023-05-02T11:13:50.968Z,101460.78
2023-05-02T11:16:17.652Z,101456.53
2023-05-02T11:18:59.802Z,101459.94
2023-05-02T11:21:30.538Z,101465.09
2023-05-02T11:24:37.937Z,101464.25
2023-05-02T11:27:29.853Z,101483.09
2023-05-02T11:30:09.600Z,101491.66
2023-05-02T11:32:45.223Z,101495.03
2023-05-02T11:35:22.411Z,101494.88
2023-05-02T11:37:56.071Z,101508.78
2023-05-02T11:40:23.583Z,101516.41
2023-05-02T11:42:50.007Z,101518.00
2023-05-02T11:45:17.203Z,101517.28
2023-05-02T11:47:44.131Z,101519.94
2023-05-02T11:50:11.058Z,101523.38
2023-05-02T11:52:39.509Z,101523.41
2023-05-02T11:55:08.702Z,101525.78
2023-05-02T11:57:37.132Z,101526.72
2023-05-02T12:00:06.090Z,101528.50
2023-05-02T12:02:45.867Z,101531.88
2023-05-02T12:05:14.062Z,101539.41
2023-05-02T12:07:42.932Z,101542.91
2023-05-02T12:10:10.165Z,101537.63
2023-05-02T12:12:38.430Z,101532.56
2023-05-02T12:15:09.797Z,101540.34
2023-05-02T12:17:42.496Z,101543.88
2023-05-02T12:20:13.190Z,101551.59
2023-05-02T12:22:39.709Z,101547.19
2023-05-02T12:25:09.399Z,101560.22
2023-05-02T12:27:36.148Z,101557.63
2023-05-02T12:30:05.071Z,101562.81
2023-05-02T12:32:35.478Z,101561.84
2023-05-02T12:35:03.814Z,101550.75
2023-05-02T12:37:31.341Z,101565.28
2023-05-02T12:39:58.031Z,101572.13
2023-05-02T12:42:25.825Z,101570.44
2023-05-02T12:44:52.980Z,101572.94
2023-05-02T12:47:20.512Z,101569.44
2023-05-02T12:49:55.791Z,101562.69
2023-05-02T12:52:49.278Z,101570.38
2023-05-02T12:55:20.347Z,101568.81
2023-05-02T12:57:47.334Z,101566.44
2023-05-02T13:00:16.909Z,101568.13
2023-05-02T13:02:43.607Z,101572.38
2023-05-02T13:05:18.157Z,101581.66
2023-05-02T13:07:44.908Z,101579.97
2023-05-02T13:10:11.472Z,101577.50
2023-05-02T13:12:38.442Z,101587.91
2023-05-02T13:15:05.591Z,101591.09
2023-05-02T13:17:32.527Z,101593.69
2023-05-02T13:20:02.013Z,101593.97
2023-05-02T13:22:29.332Z,101599.97
2023-05-02T13:24:57.652Z,101597.38
2023-05-02T13:27:24.423Z,101602.41
2023-05-02T13:29:51.707Z,101595.56
2023-05-02T13:32:18.717Z,101609.19
2023-05-02T13:34:47.252Z,101609.06
2023-05-02T13:37:13.924Z,101609.91
2023-05-02T13:39:40.402Z,101606.41
2023-05-02T13:42:06.835Z,101614.94
2023-05-02T13:44:33.645Z,101613.19
2023-05-02T13:47:00.216Z,101616.59
2023-05-02T13:49:26.964Z,101628.72
2023-05-02T13:51:53.957Z,101623.50
2023-05-02T13:54:20.760Z,101620.13
2023-05-02T13:56:47.554Z,101615.16
2023-05-02T13:59:16.811Z,101623.78
2023-05-02T14:01:44.983Z,101629.09
2023-05-02T14:04:11.785Z,101628.28
2023-05-02T14:06:39.055Z,101629.09
2023-05-02T14:09:05.886Z,101634.13
2023-05-02T14:11:32.529Z,101639.13
2023-05-02T14:13:59.068Z,101634.03
2023-05-02T14:16:25.623Z,101632.09
2023-05-02T14:18:52.125Z,101653.31
2023-05-02T14:21:19.002Z,101639.50
2023-05-02T14:23:47.197Z,101641.50
2023-05-02T14:26:13.935Z,101644.16
2023-05-02T14:28:41.574Z,101654.34
2023-05-02T14:31:08.552Z,101652.56
2023-05-02T14:33:35.085Z,101666.09
2023-05-02T14:36:01.771Z,101676.22
2023-05-02T14:38:28.893Z,101676.16
2023-05-02T14:40:55.585Z,101670.03
2023-05-02T14:43:22.651Z,101683.09
2023-05-02T14:45:49.440Z,101682.94
2023-05-02T14:48:16.246Z,101694.34
2023-05-02T14:50:43.968Z,101694.19
2023-05-02T14:53:10.508Z,101697.81
2023-05-02T14:55:38.550Z,101696.97
2023-05-02T14:58:09.118Z,101702.16
2023-05-02T15:00:36.827Z,101710.81
2023-05-02T15:03:08.071Z,101708.03
2023-05-02T15:05:36.301Z,101709.72
2023-05-02T15:08:03.348Z,101710.59
2023-05-02T15:10:29.884Z,101713.16
2023-05-02T15:12:56.318Z,101720.34
2023-05-02T15:15:23.065Z,101711.78
2023-05-02T15:17:49.559Z,101721.75
2023-05-02T15:20:27.413Z,101721.81
2023-05-02T15:22:53.774Z,101722.66
2023-05-02T15:25:20.091Z,101723.94
2023-05-02T15:27:46.453Z,101730.06
2023-05-02T15:30:12.935Z,101736.78
2023-05-02T15:32:39.351Z,101735.84
2023-05-02T15:35:06.527Z,101730.69
2023-05-02T15:37:32.897Z,101742.56
2023-05-02T15:39:59.352Z,101742.59
2023-05-02T15:42:25.723Z,101746.78
2023-05-02T15:44:52.089Z,101746.81
2023-05-02T15:47:19.601Z,101741.19
2023-05-02T15:49:47.952Z,101745.09
2023-05-02T15:52:14.331Z,101747.09
2023-05-02T15:54:40.692Z,101742.72
2023-05-02T15:57:07.150Z,101745.63
2023-05-02T15:59:33.485Z,101741.63
2023-05-02T16:01:59.897Z,101742.78
2023-05-02T16:04:26.426Z,101735.75
2023-05-02T16:06:52.824Z,101747.97
2023-05-02T16:09:19.235Z,101751.41
2023-05-02T16:11:45.635Z,101749.75
2023-05-02T16:14:11.995Z,101753.19
2023-05-02T16:16:38.434Z,101759.34
2023-05-02T16:19:04.893Z,101752.22
2023-05-02T16:21:31.273Z,101759.81
2023-05-02T16:23:57.638Z,101769.81
2023-05-02T16:26:24.040Z,101768.06
2023-05-02T16:28:50.407Z,101759.63
2023-05-02T16:31:16.850Z,101763.09
2023-05-02T16:33:43.224Z,101763.59
2023-05-02T16:36:09.794Z,101759.56
2023-05-02T16:38:36.168Z,101764.78
2023-05-02T16:41:08.586Z,101758.53
2023-05-02T16:43:34.932Z,101762.91
2023-05-02T16:46:02.994Z,101764.44
2023-05-02T16:48:29.485Z,101761.03
2023-05-02T16:50:56.181Z,101757.63
2023-05-02T16:53:22.922Z,101762.75
2023-05-02T16:55:49.512Z,101758.47
2023-05-02T16:58:15.961Z,101768.97
2023-05-02T17:00:42.376Z,101763.47
2023-05-02T17:03:08.863Z,101760.84
2023-05-02T17:05:35.371Z,101767.72
2023-05-02T17:08:01.696Z,101766.03
2023-05-02T17:10:28.033Z,101773.81
2023-05-02T17:12:54.404Z,101777.31
2023-05-02T17:15:20.874Z,101782.22
2023-05-02T17:17:47.260Z,101778.69
2023-05-02T17:20:13.644Z,101780.38
2023-05-02T17:22:40.276Z,101775.28
2023-05-02T17:25:07.150Z,101780.25
2023-05-02T17:27:33.580Z,101775.94
2023-05-02T17:30:00.159Z,101779.19
2023-05-02T17:32:26.954Z,101782.56
2023-05-02T17:34:53.312Z,101786.78
2023-05-02T17:37:20.002Z,101786.81
2023-05-02T17:39:46.349Z,101782.59
2023-05-02T17:42:12.829Z,101792.97
2023-05-02T17:44:39.212Z,101797.94
2023-05-02T17:47:05.841Z,101797.19
2023-05-02T17:49:33.392Z,101798.06
2023-05-02T17:51:59.790Z,101799.00
2023-05-02T17:54:26.159Z,101798.94
2023-05-02T17:56:52.532Z,101795.72
2023-05-02T17:59:18.865Z,101799.88
2023-05-02T18:01:45.260Z,101798.94
2023-05-02T18:04:11.776Z,101809.25
2023-05-02T18:06:38.169Z,101818.56
2023-05-02T18:09:04.560Z,101818.63
2023-05-02T18:11:30.951Z,101816.69
2023-05-02T18:13:57.517Z,101823.50
2023-05-02T18:16:23.906Z,101829.34
2023-05-02T18:18:50.245Z,101825.91
2023-05-02T18:21:23.395Z,101828.47
2023-05-02T18:23:49.838Z,101824.97
2023-05-02T18:26:16.261Z,101828.38
2023-05-02T18:28:43.489Z,101820.69
2023-05-02T18:31:17.339Z,101821.53
2023-05-02T18:33:43.825Z,101830.81
2023-05-02T18:36:10.205Z,101824.72
2023-05-02T18:38:36.658Z,101828.13
2023-05-02T18:41:03.059Z,101826.19
2023-05-02T18:43:29.537Z,101818.38
2023-05-02T18:45:55.938Z,101828.56
2023-05-02T18:48:22.332Z,101828.56
2023-05-02T18:50:48.651Z,101830.19
2023-05-02T18:53:14.980Z,101828.50
2023-05-02T18:55:41.314Z,101833.75
2023-05-02T18:58:07.751Z,101833.66
2023-05-02T19:00:36.856Z,101836.16
2023-05-02T19:03:03.767Z,101840.50
2023-05-02T19:05:30.212Z,101843.81
2023-05-02T19:07:56.538Z,101842.16
2023-05-02T19:10:22.892Z,101845.56
2023-05-02T19:12:49.236Z,101849.75
2023-05-02T19:15:15.740Z,101859.16
2023-05-02T19:17:42.180Z,101852.25
2023-05-02T19:20:09.345Z,101855.53
2023-05-02T19:22:35.782Z,101855.47
2023-05-02T19:25:02.451Z,101865.56
2023-05-02T19:27:29.240Z,101865.66
2023-05-02T19:29:55.576Z,101868.25
2023-05-02T19:32:22.025Z,101880.16
2023-05-02T19:34:48.402Z,101870.66
2023-05-02T19:37:14.731Z,101875.81
2023-05-02T19:39:41.095Z,101887.78
2023-05-02T19:42:08.155Z,101887.72
2023-05-02T19:44:34.388Z,101885.44
2023-05-02T19:47:00.712Z,101887.94
2023-05-02T19:49:27.132Z,101884.53
2023-05-02T19:51:53.466Z,101887.03
2023-05-02T19:54:19.803Z,101890.50
2023-05-02T19:56:46.136Z,101887.88
2023-05-02T19:59:12.564Z,101898.16
2023-05-02T20:01:39.126Z,101901.50
2023-05-02T20:04:05.584Z,101901.56
2023-05-02T20:06:32.047Z,101902.41
2023-05-02T20:08:58.506Z,101901.53
2023-05-02T20:11:24.931Z,101899.84
2023-05-02T20:13:51.760Z,101905.78
2023-05-02T20:16:18.114Z,101906.69
2023-05-02T20:18:44.490Z,101903.22
2023-05-02T20:21:10.855Z,101906.88
2023-05-02T20:23:37.246Z,101911.00
2023-05-02T20:26:03.717Z,101911.81
2023-05-02T20:28:30.048Z,101913.59
2023-05-02T20:30:56.414Z,101923.84
2023-05-02T20:33:27.442Z,101919.53
2023-05-02T20:36:00.057Z,101923.75
2023-05-02T20:38:26.458Z,101926.44
2023-05-02T20:40:52.958Z,101920.56
2023-05-02T20:43:19.357Z,101934.00
2023-05-02T20:45:46.349Z,101930.41
2023-05-02T20:48:15.803Z,101935.66
2023-05-02T20:50:42.188Z,101929.53
2023-05-02T20:53:08.503Z,101937.13
2023-05-02T20:55:34.838Z,101938.13
2023-05-02T20:58:01.186Z,101940.59
2023-05-02T21:00:27.525Z,101938.91
2023-05-02T21:02:53.927Z,101941.34
2023-05-02T21:05:20.293Z,101948.91
2023-05-02T21:07:46.633Z,101948.00
2023-05-02T21:10:13.042Z,101957.41
2023-05-02T21:12:39.527Z,101961.53
2023-05-02T21:15:07.209Z,101962.28
2023-05-02T21:17:33.604Z,101966.53
2023-05-02T21:19:59.982Z,101971.69
2023-05-02T21:22:26.748Z,101970.72
2023-05-02T21:24:53.504Z,101971.53
2023-05-02T21:27:20.300Z,101972.28
2023-05-02T21:29:46.808Z,101966.22
2023-05-02T21:32:13.581Z,101966.09
2023-05-02T21:34:41.686Z,101965.41
2023-05-02T21:37:08.399Z,101962.69
2023-05-02T21:39:35.196Z,101961.75
2023-05-02T21:42:01.636Z,101974.69
2023-05-02T21:44:28.136Z,101967.75
2023-05-02T21:46:54.718Z,101963.31
2023-05-02T21:49:21.483Z,101967.41
2023-05-02T21:51:48.125Z,101970.13
2023-05-02T21:54:14.586Z,101966.53
2023-05-02T21:56:41.125Z,101962.97
2023-05-02T21:59:07.835Z,101970.56
2023-05-02T22:01:34.570Z,101964.47
2023-05-02T22:04:01.300Z,101969.47
2023-05-02T22:06:27.889Z,101974.81
2023-05-02T22:08:54.707Z,101972.34
2023-05-02T22:11:21.454Z,101972.00
2023-05-02T22:13:47.950Z,101980.34
2023-05-02T22:16:15.673Z,101977.78
2023-05-02T22:18:43.308Z,101980.31
2023-05-02T22:21:10.997Z,101981.22
2023-05-02T22:23:37.964Z,101980.56
2023-05-02T22:26:04.456Z,101988.75
2023-05-02T22:28:31.005Z,101986.09
2023-05-02T22:30:57.516Z,101990.44
2023-05-02T22:33:24.260Z,101989.97
2023-05-02T22:35:50.993Z,101989.75
2023-05-02T22:38:19.760Z,101992.03
2023-05-02T22:40:46.505Z,101992.75
2023-05-02T22:43:13.221Z,102002.09
2023-05-02T22:45:39.710Z,102002.28
2023-05-02T22:48:07.074Z,102004.81
2023-05-02T22:50:34.038Z,102005.63
2023-05-02T22:53:00.829Z,102001.31
2023-05-02T22:55:27.330Z,102007.19
2023-05-02T22:57:54.184Z,102011.47
2023-05-02T23:00:20.656Z,102016.50
2023-05-02T23:02:47.234Z,102018.34
2023-05-02T23:05:13.793Z,102016.56
2023-05-02T23:07:40.651Z,102022.28
2023-05-02T23:10:07.926Z,102023.09
2023-05-02T23:12:34.625Z,102024.06
2023-05-02T23:15:01.206Z,102026.47
2023-05-02T23:17:27.734Z,102032.41
2023-05-02T23:19:54.338Z,102031.47
2023-05-02T23:22:20.821Z,102032.66
2023-05-02T23:24:47.505Z,102033.31
2023-05-02T23:27:14.591Z,102033.38
2023-05-02T23:29:41.065Z,102031.47
2023-05-02T23:32:07.835Z,102036.59
2023-05-02T23:34:35.430Z,102030.00
2023-05-02T23:37:02.366Z,102033.28
2023-05-02T23:39:29.451Z,102024.63
2023-05-02T23:41:56.158Z,102022.03
2023-05-02T23:44:22.559Z,102031.47
2023-05-02T23:46:49.293Z,102035.03
2023-05-02T23:49:15.904Z,102028.00
2023-05-02T23:51:42.434Z,102033.03
2023-05-02T23:54:09.027Z,102032.31
2023-05-02T23:56:35.531Z,102030.56
2023-05-02T23:59:02.021Z,102030.50
